sensor_id;sensor_type;location;lat;lon;timestamp;P1;P2;P0
78512;PMS5003;67809;55.034;73.462;2023-03-14T00:01:30;16.25;13.00;9.00
78512;PMS5003;67809;55.034;73.462;2023-03-14T00:03:56;15.00;11.33;7.00
78512;PMS5003;67809;55.034;73.462;2023-03-14T00:06:51;17.50;14.00;8.25
78512;PMS5003;67809;55.034;73.462;2023-03-14T00:09:36;20.00;15.50;9.50
78512;PMS5003;67809;55.034;73.462;2023-03-14T00:12:26;17.00;13.67;9.00
78512;PMS5003;67809;55.034;73.462;2023-03-14T00:15:20;18.25;14.75;8.50
78512;PMS5003;67809;55.034;73.462;2023-03-14T00:18:05;22.75;17.75;10.00
78512;PMS5003;67809;55.034;73.462;2023-03-14T00:20:49;20.50;18.00;11.25
78512;PMS5003;67809;55.034;73.462;2023-03-14T00:23:34;26.00;20.00;11.67
78512;PMS5003;67809;55.034;73.462;2023-03-14T00:26:20;19.00;16.00;10.00
78512;PMS5003;67809;55.034;73.462;2023-03-14T00:29:15;17.50;15.00;10.00
78512;PMS5003;67809;55.034;73.462;2023-03-14T00:32:00;20.00;17.00;9.75
78512;PMS5003;67809;55.034;73.462;2023-03-14T00:34:44;23.67;17.00;10.00
78512;PMS5003;67809;55.034;73.462;2023-03-14T00:37:29;19.00;15.00;9.00
78512;PMS5003;67809;55.034;73.462;2023-03-14T00:40:14;21.25;17.25;11.00
78512;PMS5003;67809;55.034;73.462;2023-03-14T00:42:58;19.33;15.33;9.00
78512;PMS5003;67809;55.034;73.462;2023-03-14T00:45:44;18.50;15.75;10.50
78512;PMS5003;67809;55.034;73.462;2023-03-14T00:48:29;19.00;15.00;10.00
78512;PMS5003;67809;55.034;73.462;2023-03-14T00:51:14;23.25;17.00;11.50
78512;PMS5003;67809;55.034;73.462;2023-03-14T00:53:59;19.67;15.00;9.00
78512;PMS5003;67809;55.034;73.462;2023-03-14T00:56:35;22.50;17.50;11.75
78512;PMS5003;67809;55.034;73.462;2023-03-14T00:59:01;19.00;15.75;10.25
78512;PMS5003;67809;55.034;73.462;2023-03-14T01:01:27;24.00;17.00;10.00
78512;PMS5003;67809;55.034;73.462;2023-03-14T01:03:54;19.25;15.25;9.25
78512;PMS5003;67809;55.034;73.462;2023-03-14T01:06:25;22.75;17.50;10.50
78512;PMS5003;67809;55.034;73.462;2023-03-14T01:09:01;21.50;16.50;11.00
78512;PMS5003;67809;55.034;73.462;2023-03-14T01:11:28;22.50;17.00;10.25
78512;PMS5003;67809;55.034;73.462;2023-03-14T01:13:57;18.67;14.67;9.00
78512;PMS5003;67809;55.034;73.462;2023-03-14T01:16:24;19.75;16.00;10.00
78512;PMS5003;67809;55.034;73.462;2023-03-14T01:18:55;23.00;18.00;11.00
78512;PMS5003;67809;55.034;73.462;2023-03-14T01:21:25;24.50;19.00;11.75
78512;PMS5003;67809;55.034;73.462;2023-03-14T01:23:52;19.33;16.33;10.00
78512;PMS5003;67809;55.034;73.462;2023-03-14T01:26:19;23.75;18.25;11.00
78512;PMS5003;67809;55.034;73.462;2023-03-14T01:28:46;23.50;18.00;10.00
78512;PMS5003;67809;55.034;73.462;2023-03-14T01:31:13;21.25;17.00;10.75
78512;PMS5003;67809;55.034;73.462;2023-03-14T01:33:39;22.00;17.00;11.00
78512;PMS5003;67809;55.034;73.462;2023-03-14T01:36:34;26.00;20.50;13.00
78512;PMS5003;67809;55.034;73.462;2023-03-14T01:39:20;23.25;17.25;10.00
78512;PMS5003;67809;55.034;73.462;2023-03-14T01:41:46;24.00;18.00;11.00
78512;PMS5003;67809;55.034;73.462;2023-03-14T01:44:12;19.75;16.00;10.00
78512;PMS5003;67809;55.034;73.462;2023-03-14T01:46:39;20.50;16.25;10.75
78512;PMS5003;67809;55.034;73.462;2023-03-14T01:49:15;21.75;17.50;9.50
78512;PMS5003;67809;55.034;73.462;2023-03-14T01:52:09;21.00;16.50;10.25
78512;PMS5003;67809;55.034;73.462;2023-03-14T01:54:43;20.33;16.00;9.00
78512;PMS5003;67809;55.034;73.462;2023-03-14T01:59:40;19.75;16.00;9.50
78512;PMS5003;67809;55.034;73.462;2023-03-14T02:02:07;21.00;17.00;9.75
78512;PMS5003;67809;55.034;73.462;2023-03-14T02:04:35;20.67;16.00;10.00
78512;PMS5003;67809;55.034;73.462;2023-03-14T02:09:59;22.75;16.00;10.25
78512;PMS5003;67809;55.034;73.462;2023-03-14T02:12:38;20.50;15.75;9.75
78512;PMS5003;67809;55.034;73.462;2023-03-14T02:15:12;25.00;18.33;11.00
78512;PMS5003;67809;55.034;73.462;2023-03-14T02:18:10;27.25;20.75;13.00
78512;PMS5003;67809;55.034;73.462;2023-03-14T02:26:23;20.50;15.50;10.00
78512;PMS5003;67809;55.034;73.462;2023-03-14T02:29:03;15.25;12.00;7.50
78512;PMS5003;67809;55.034;73.462;2023-03-14T02:31:39;16.25;14.00;9.00
78512;PMS5003;67809;55.034;73.462;2023-03-14T02:34:05;17.00;14.00;9.00
78512;PMS5003;67809;55.034;73.462;2023-03-14T02:36:32;17.00;14.00;8.00
78512;PMS5003;67809;55.034;73.462;2023-03-14T02:41:26;19.00;15.75;10.00
78512;PMS5003;67809;55.034;73.462;2023-03-14T02:44:00;19.33;15.33;8.67
78512;PMS5003;67809;55.034;73.462;2023-03-14T02:46:26;22.00;18.00;9.00
78512;PMS5003;67809;55.034;73.462;2023-03-14T02:48:53;20.25;16.50;10.25
78512;PMS5003;67809;55.034;73.462;2023-03-14T02:51:21;18.75;15.00;9.00
78512;PMS5003;67809;55.034;73.462;2023-03-14T02:53:49;26.00;20.00;10.00
78512;PMS5003;67809;55.034;73.462;2023-03-14T02:56:19;20.75;15.50;9.75
78512;PMS5003;67809;55.034;73.462;2023-03-14T02:58:55;20.75;17.50;11.00
78512;PMS5003;67809;55.034;73.462;2023-03-14T03:01:48;22.50;16.50;11.25
78512;PMS5003;67809;55.034;73.462;2023-03-14T03:04:14;28.67;22.00;12.00
78512;PMS5003;67809;55.034;73.462;2023-03-14T03:06:50;25.00;18.50;10.00
78512;PMS5003;67809;55.034;73.462;2023-03-14T03:09:16;21.25;17.00;10.00
78512;PMS5003;67809;55.034;73.462;2023-03-14T03:11:42;22.75;18.50;11.00
78512;PMS5003;67809;55.034;73.462;2023-03-14T03:14:18;22.00;18.00;10.67
78512;PMS5003;67809;55.034;73.462;2023-03-14T03:16:44;17.25;13.00;8.50
78512;PMS5003;67809;55.034;73.462;2023-03-14T03:19:10;13.25;11.00;7.25
78512;PMS5003;67809;55.034;73.462;2023-03-14T03:21:39;14.75;11.75;7.00
78512;PMS5003;67809;55.034;73.462;2023-03-14T03:24:05;20.00;15.00;8.00
78512;PMS5003;67809;55.034;73.462;2023-03-14T03:26:34;15.00;12.00;8.00
78512;PMS5003;67809;55.034;73.462;2023-03-14T03:29:04;19.00;15.00;9.00
78512;PMS5003;67809;55.034;73.462;2023-03-14T03:31:36;17.75;13.75;8.75
78512;PMS5003;67809;55.034;73.462;2023-03-14T03:34:02;18.00;15.00;8.00
78512;PMS5003;67809;55.034;73.462;2023-03-14T03:36:28;13.75;11.50;8.00
78512;PMS5003;67809;55.034;73.462;2023-03-14T03:38:56;14.00;12.25;8.00
78512;PMS5003;67809;55.034;73.462;2023-03-14T03:41:29;16.00;13.00;8.00
78512;PMS5003;67809;55.034;73.462;2023-03-14T03:43:55;20.00;16.00;9.50
78512;PMS5003;67809;55.034;73.462;2023-03-14T03:46:21;19.00;16.00;9.25
78512;PMS5003;67809;55.034;73.462;2023-03-14T03:48:53;19.00;15.00;9.00
78512;PMS5003;67809;55.034;73.462;2023-03-14T03:51:19;19.50;14.00;9.00
78512;PMS5003;67809;55.034;73.462;2023-03-14T03:53:46;18.00;15.00;9.25
78512;PMS5003;67809;55.034;73.462;2023-03-14T03:56:16;22.00;17.00;10.00
78512;PMS5003;67809;55.034;73.462;2023-03-14T03:58:48;16.00;14.00;8.00
78512;PMS5003;67809;55.034;73.462;2023-03-14T04:01:19;19.25;15.75;10.00
78512;PMS5003;67809;55.034;73.462;2023-03-14T04:03:49;15.25;13.00;8.00
78512;PMS5003;67809;55.034;73.462;2023-03-14T04:06:15;17.75;14.00;10.00
78512;PMS5003;67809;55.034;73.462;2023-03-14T04:08:47;21.25;17.75;10.75
78512;PMS5003;67809;55.034;73.462;2023-03-14T04:11:39;24.00;18.00;10.00
78512;PMS5003;67809;55.034;73.462;2023-03-14T04:14:32;19.50;15.75;9.00
78512;PMS5003;67809;55.034;73.462;2023-03-14T04:17:09;18.25;15.50;9.00
78512;PMS5003;67809;55.034;73.462;2023-03-14T04:19:36;22.00;17.00;10.75
78512;PMS5003;67809;55.034;73.462;2023-03-14T04:22:02;22.50;15.25;10.00
78512;PMS5003;67809;55.034;73.462;2023-03-14T04:24:34;21.00;16.00;10.50
78512;PMS5003;67809;55.034;73.462;2023-03-14T04:27:01;22.00;15.00;10.00
78512;PMS5003;67809;55.034;73.462;2023-03-14T04:29:32;25.00;18.00;10.00
78512;PMS5003;67809;55.034;73.462;2023-03-14T04:31:59;18.75;14.75;9.00
78512;PMS5003;67809;55.034;73.462;2023-03-14T04:34:25;19.00;15.25;9.00
78512;PMS5003;67809;55.034;73.462;2023-03-14T04:36:53;23.00;19.00;12.00
78512;PMS5003;67809;55.034;73.462;2023-03-14T04:39:29;21.75;17.75;11.50
78512;PMS5003;67809;55.034;73.462;2023-03-14T04:42:16;30.25;24.00;13.00
78512;PMS5003;67809;55.034;73.462;2023-03-14T04:44:42;32.00;23.67;15.67
78512;PMS5003;67809;55.034;73.462;2023-03-14T04:47:09;35.50;27.00;17.00
78512;PMS5003;67809;55.034;73.462;2023-03-14T04:49:37;33.50;25.75;16.00
78512;PMS5003;67809;55.034;73.462;2023-03-14T04:52:11;34.50;26.00;16.00
78512;PMS5003;67809;55.034;73.462;2023-03-14T04:54:48;32.67;24.67;15.00
78512;PMS5003;67809;55.034;73.462;2023-03-14T04:57:19;25.25;21.00;13.25
78512;PMS5003;67809;55.034;73.462;2023-03-14T04:59:46;25.75;20.00;12.50
78512;PMS5003;67809;55.034;73.462;2023-03-14T05:02:29;21.00;17.00;11.00
78512;PMS5003;67809;55.034;73.462;2023-03-14T05:05:13;23.00;18.00;11.75
78512;PMS5003;67809;55.034;73.462;2023-03-14T05:07:57;30.00;23.00;13.25
78512;PMS5003;67809;55.034;73.462;2023-03-14T05:10:52;26.75;19.00;11.00
78512;PMS5003;67809;55.034;73.462;2023-03-14T05:13:42;18.00;14.50;8.25
78512;PMS5003;67809;55.034;73.462;2023-03-14T05:16:17;20.33;16.00;10.00
78512;PMS5003;67809;55.034;73.462;2023-03-14T05:18:51;17.75;14.50;9.00
78512;PMS5003;67809;55.034;73.462;2023-03-14T05:21:36;23.50;18.00;10.50
78512;PMS5003;67809;55.034;73.462;2023-03-14T05:24:08;21.50;17.00;10.25
78512;PMS5003;67809;55.034;73.462;2023-03-14T05:26:57;23.00;19.00;11.00
78512;PMS5003;67809;55.034;73.462;2023-03-14T05:29:40;21.75;17.25;11.00
78512;PMS5003;67809;55.034;73.462;2023-03-14T05:32:24;26.00;20.00;11.75
78512;PMS5003;67809;55.034;73.462;2023-03-14T05:35:16;22.00;17.00;11.00
78512;PMS5003;67809;55.034;73.462;2023-03-14T05:38:05;25.50;18.00;12.50
78512;PMS5003;67809;55.034;73.462;2023-03-14T05:40:56;22.75;18.25;12.00
78512;PMS5003;67809;55.034;73.462;2023-03-14T05:44:05;21.75;18.00;11.25
78512;PMS5003;67809;55.034;73.462;2023-03-14T05:47:00;20.00;16.33;10.00
78512;PMS5003;67809;55.034;73.462;2023-03-14T05:49:42;20.00;15.00;10.00
78512;PMS5003;67809;55.034;73.462;2023-03-14T05:52:27;21.00;15.00;10.00
78512;PMS5003;67809;55.034;73.462;2023-03-14T05:55:07;17.00;13.00;8.00
78512;PMS5003;67809;55.034;73.462;2023-03-14T05:57:43;21.00;16.00;10.00
78512;PMS5003;67809;55.034;73.462;2023-03-14T06:00:24;18.00;14.75;10.00
78512;PMS5003;67809;55.034;73.462;2023-03-14T06:03:05;17.00;14.00;10.00
78512;PMS5003;67809;55.034;73.462;2023-03-14T06:05:35;19.50;16.00;8.00
78512;PMS5003;67809;55.034;73.462;2023-03-14T06:08:01;16.25;14.25;9.00
78512;PMS5003;67809;55.034;73.462;2023-03-14T06:10:39;29.00;22.00;14.00
78512;PMS5003;67809;55.034;73.462;2023-03-14T06:13:06;15.00;12.75;8.00
78512;PMS5003;67809;55.034;73.462;2023-03-14T06:15:34;19.00;14.00;8.00
78512;PMS5003;67809;55.034;73.462;2023-03-14T06:18:02;16.00;13.00;8.50
78512;PMS5003;67809;55.034;73.462;2023-03-14T06:20:28;24.00;19.00;12.00
78512;PMS5003;67809;55.034;73.462;2023-03-14T06:22:55;17.00;13.50;9.00
78512;PMS5003;67809;55.034;73.462;2023-03-14T06:25:26;17.00;13.50;9.00
78512;PMS5003;67809;55.034;73.462;2023-03-14T06:27:52;16.67;13.00;8.00
78512;PMS5003;67809;55.034;73.462;2023-03-14T06:30:19;16.75;13.00;8.00
78512;PMS5003;67809;55.034;73.462;2023-03-14T06:32:45;17.75;13.00;8.00
78512;PMS5003;67809;55.034;73.462;2023-03-14T06:35:14;15.00;13.00;7.75
78512;PMS5003;67809;55.034;73.462;2023-03-14T06:37:42;14.67;11.00;7.00
78512;PMS5003;67809;55.034;73.462;2023-03-14T06:40:18;17.00;13.00;7.50
78512;PMS5003;67809;55.034;73.462;2023-03-14T06:42:55;16.00;13.00;8.00
78512;PMS5003;67809;55.034;73.462;2023-03-14T06:45:23;15.00;12.00;8.00
78512;PMS5003;67809;55.034;73.462;2023-03-14T06:48:01;14.00;11.00;7.00
78512;PMS5003;67809;55.034;73.462;2023-03-14T06:50:36;16.00;12.00;7.00
78512;PMS5003;67809;55.034;73.462;2023-03-14T06:53:03;13.00;11.00;7.00
78512;PMS5003;67809;55.034;73.462;2023-03-14T06:55:40;14.00;11.75;8.00
78512;PMS5003;67809;55.034;73.462;2023-03-14T06:58:07;12.00;11.00;7.00
78512;PMS5003;67809;55.034;73.462;2023-03-14T07:00:38;16.00;13.50;7.00
78512;PMS5003;67809;55.034;73.462;2023-03-14T07:03:15;13.25;11.00;7.00
78512;PMS5003;67809;55.034;73.462;2023-03-14T07:05:44;16.00;13.00;8.00
78512;PMS5003;67809;55.034;73.462;2023-03-14T07:08:10;16.00;13.00;9.00
78512;PMS5003;67809;55.034;73.462;2023-03-14T07:10:36;14.75;12.25;8.00
78512;PMS5003;67809;55.034;73.462;2023-03-14T07:13:07;18.00;13.50;8.00
78512;PMS5003;67809;55.034;73.462;2023-03-14T07:15:40;15.00;12.00;8.00
78512;PMS5003;67809;55.034;73.462;2023-03-14T07:18:08;14.00;11.00;7.00
78512;PMS5003;67809;55.034;73.462;2023-03-14T07:20:35;13.00;11.00;7.00
78512;PMS5003;67809;55.034;73.462;2023-03-14T07:23:06;14.00;12.00;7.00
78512;PMS5003;67809;55.034;73.462;2023-03-14T07:25:38;14.00;11.00;7.00
78512;PMS5003;67809;55.034;73.462;2023-03-14T07:28:04;14.00;11.00;7.00
78512;PMS5003;67809;55.034;73.462;2023-03-14T07:30:31;14.25;11.00;7.00
78512;PMS5003;67809;55.034;73.462;2023-03-14T07:33:08;13.00;11.00;6.00
78512;PMS5003;67809;55.034;73.462;2023-03-14T07:35:34;10.25;9.50;6.75
78512;PMS5003;67809;55.034;73.462;2023-03-14T07:38:00;15.00;11.75;7.00
78512;PMS5003;67809;55.034;73.462;2023-03-14T07:40:33;14.00;12.00;7.00
78512;PMS5003;67809;55.034;73.462;2023-03-14T07:43:00;16.00;12.50;7.00
78512;PMS5003;67809;55.034;73.462;2023-03-14T07:45:36;18.00;13.00;8.00
78512;PMS5003;67809;55.034;73.462;2023-03-14T07:48:02;19.00;13.00;8.67
78512;PMS5003;67809;55.034;73.462;2023-03-14T07:50:28;14.00;12.00;7.00
78512;PMS5003;67809;55.034;73.462;2023-03-14T07:52:55;14.00;12.00;7.00
78512;PMS5003;67809;55.034;73.462;2023-03-14T07:55:21;12.50;10.25;6.25
78512;PMS5003;67809;55.034;73.462;2023-03-14T07:57:47;15.00;12.00;8.00
78512;PMS5003;67809;55.034;73.462;2023-03-14T08:00:13;14.00;11.00;7.00
78512;PMS5003;67809;55.034;73.462;2023-03-14T08:02:40;14.00;11.00;6.00
78512;PMS5003;67809;55.034;73.462;2023-03-14T08:05:07;11.25;10.00;7.00
78512;PMS5003;67809;55.034;73.462;2023-03-14T08:07:33;11.75;9.00;6.00
78512;PMS5003;67809;55.034;73.462;2023-03-14T08:09:59;12.00;10.00;7.00
78512;PMS5003;67809;55.034;73.462;2023-03-14T08:12:31;10.25;8.50;6.00
78512;PMS5003;67809;55.034;73.462;2023-03-14T08:14:57;14.00;11.00;7.00
78512;PMS5003;67809;55.034;73.462;2023-03-14T08:17:23;12.00;10.00;6.00
78512;PMS5003;67809;55.034;73.462;2023-03-14T08:19:49;10.75;9.00;7.00
78512;PMS5003;67809;55.034;73.462;2023-03-14T08:22:15;11.00;9.00;6.00
78512;PMS5003;67809;55.034;73.462;2023-03-14T08:24:41;9.50;9.00;5.00
78512;PMS5003;67809;55.034;73.462;2023-03-14T08:27:07;11.00;9.50;5.25
78512;PMS5003;67809;55.034;73.462;2023-03-14T08:29:39;11.00;9.00;6.00
78512;PMS5003;67809;55.034;73.462;2023-03-14T08:32:07;12.00;11.00;7.00
78512;PMS5003;67809;55.034;73.462;2023-03-14T08:34:33;11.50;10.00;6.00
78512;PMS5003;67809;55.034;73.462;2023-03-14T08:37:09;9.00;8.00;5.00
78512;PMS5003;67809;55.034;73.462;2023-03-14T08:39:40;11.00;9.00;6.00
78512;PMS5003;67809;55.034;73.462;2023-03-14T08:42:06;9.00;8.00;6.00
78512;PMS5003;67809;55.034;73.462;2023-03-14T08:44:32;10.00;9.00;6.00
78512;PMS5003;67809;55.034;73.462;2023-03-14T08:46:58;9.00;8.00;6.00
78512;PMS5003;67809;55.034;73.462;2023-03-14T08:49:35;12.00;10.00;6.33
78512;PMS5003;67809;55.034;73.462;2023-03-14T08:52:01;12.00;11.00;7.00
78512;PMS5003;67809;55.034;73.462;2023-03-14T08:54:28;10.00;9.00;7.00
78512;PMS5003;67809;55.034;73.462;2023-03-14T08:56:55;8.00;7.00;5.00
78512;PMS5003;67809;55.034;73.462;2023-03-14T08:59:21;9.67;7.67;5.67
78512;PMS5003;67809;55.034;73.462;2023-03-14T09:01:49;8.00;7.00;5.00
78512;PMS5003;67809;55.034;73.462;2023-03-14T09:04:25;9.00;8.00;6.00
78512;PMS5003;67809;55.034;73.462;2023-03-14T09:06:51;13.00;12.00;8.00
78512;PMS5003;67809;55.034;73.462;2023-03-14T09:09:17;12.00;11.00;7.00
78512;PMS5003;67809;55.034;73.462;2023-03-14T09:11:44;11.00;10.00;6.00
78512;PMS5003;67809;55.034;73.462;2023-03-14T09:14:10;10.00;9.00;6.00
78512;PMS5003;67809;55.034;73.462;2023-03-14T09:16:47;13.25;12.00;8.00
78512;PMS5003;67809;55.034;73.462;2023-03-14T09:19:13;13.00;11.00;7.25
78512;PMS5003;67809;55.034;73.462;2023-03-14T09:21:39;12.00;10.00;7.00
78512;PMS5003;67809;55.034;73.462;2023-03-14T09:24:06;11.00;10.00;7.00
78512;PMS5003;67809;55.034;73.462;2023-03-14T09:26:32;10.50;9.00;6.00
78512;PMS5003;67809;55.034;73.462;2023-03-14T09:28:58;10.00;9.00;6.00
78512;PMS5003;67809;55.034;73.462;2023-03-14T09:31:34;11.50;9.00;6.00
78512;PMS5003;67809;55.034;73.462;2023-03-14T09:34:01;11.00;10.00;7.00
78512;PMS5003;67809;55.034;73.462;2023-03-14T09:36:27;12.00;10.25;7.00
78512;PMS5003;67809;55.034;73.462;2023-03-14T09:38:53;11.00;10.33;7.00
78512;PMS5003;67809;55.034;73.462;2023-03-14T09:41:39;12.00;11.00;8.00
78512;PMS5003;67809;55.034;73.462;2023-03-14T09:44:51;13.50;12.00;9.00
78512;PMS5003;67809;55.034;73.462;2023-03-14T09:46:57;12.00;10.00;7.00
78512;PMS5003;67809;55.034;73.462;2023-03-14T09:49:34;10.00;9.00;6.00
78512;PMS5003;67809;55.034;73.462;2023-03-14T09:52:14;11.00;10.00;7.00
78512;PMS5003;67809;55.034;73.462;2023-03-14T09:54:44;11.50;10.00;7.00
78512;PMS5003;67809;55.034;73.462;2023-03-14T09:57:16;10.75;10.00;7.00
78512;PMS5003;67809;55.034;73.462;2023-03-14T09:59:47;9.00;8.00;6.00
78512;PMS5003;67809;55.034;73.462;2023-03-14T10:04:41;10.75;9.25;6.75
78512;PMS5003;67809;55.034;73.462;2023-03-14T10:07:15;11.00;9.25;6.00
78512;PMS5003;67809;55.034;73.462;2023-03-14T10:09:48;10.00;9.00;6.25
78512;PMS5003;67809;55.034;73.462;2023-03-14T10:12:15;9.50;8.75;6.00
78512;PMS5003;67809;55.034;73.462;2023-03-14T10:14:51;13.00;12.00;8.00
78512;PMS5003;67809;55.034;73.462;2023-03-14T10:17:23;15.00;14.00;10.00
78512;PMS5003;67809;55.034;73.462;2023-03-14T10:20:00;11.00;10.00;7.00
78512;PMS5003;67809;55.034;73.462;2023-03-14T10:22:37;10.00;9.00;6.00
78512;PMS5003;67809;55.034;73.462;2023-03-14T10:25:05;8.00;7.00;5.00
78512;PMS5003;67809;55.034;73.462;2023-03-14T10:27:34;8.75;8.00;5.00
78512;PMS5003;67809;55.034;73.462;2023-03-14T10:30:02;10.50;8.75;5.75
78512;PMS5003;67809;55.034;73.462;2023-03-14T10:32:31;11.50;9.75;6.75
78512;PMS5003;67809;55.034;73.462;2023-03-14T10:37:34;11.00;9.00;6.00
78512;PMS5003;67809;55.034;73.462;2023-03-14T10:40:05;8.00;8.00;6.00
78512;PMS5003;67809;55.034;73.462;2023-03-14T10:42:33;10.00;9.00;6.50
78512;PMS5003;67809;55.034;73.462;2023-03-14T10:45:01;11.00;10.00;7.00
78512;PMS5003;67809;55.034;73.462;2023-03-14T10:47:28;13.00;12.00;9.00
78512;PMS5003;67809;55.034;73.462;2023-03-14T10:49:55;9.00;8.00;7.00
78512;PMS5003;67809;55.034;73.462;2023-03-14T10:52:26;8.75;7.00;5.00
78512;PMS5003;67809;55.034;73.462;2023-03-14T10:55:08;7.00;7.00;5.00
78512;PMS5003;67809;55.034;73.462;2023-03-14T10:57:38;8.75;8.00;5.00
78512;PMS5003;67809;55.034;73.462;2023-03-14T11:00:05;7.33;7.00;5.00
78512;PMS5003;67809;55.034;73.462;2023-03-14T11:07:56;12.00;11.00;7.00
78512;PMS5003;67809;55.034;73.462;2023-03-14T11:10:35;11.00;10.00;7.00
78512;PMS5003;67809;55.034;73.462;2023-03-14T11:13:12;13.75;12.00;7.00
78512;PMS5003;67809;55.034;73.462;2023-03-14T11:31:58;17.00;14.50;9.50
78512;PMS5003;67809;55.034;73.462;2023-03-14T11:34:42;17.00;15.00;9.00
78512;PMS5003;67809;55.034;73.462;2023-03-14T11:37:25;15.00;13.00;8.00
78512;PMS5003;67809;55.034;73.462;2023-03-14T11:40:20;13.75;12.50;8.75
78512;PMS5003;67809;55.034;73.462;2023-03-14T11:42:56;14.00;12.00;7.00
78512;PMS5003;67809;55.034;73.462;2023-03-14T11:45:35;12.75;10.25;7.00
78512;PMS5003;67809;55.034;73.462;2023-03-14T11:48:09;14.00;12.00;8.00
78512;PMS5003;67809;55.034;73.462;2023-03-14T11:50:47;12.00;9.00;6.00
78512;PMS5003;67809;55.034;73.462;2023-03-14T11:53:19;12.00;10.00;7.00
78512;PMS5003;67809;55.034;73.462;2023-03-14T11:55:57;12.00;9.75;6.00
78512;PMS5003;67809;55.034;73.462;2023-03-14T11:58:33;14.00;11.00;7.00
78512;PMS5003;67809;55.034;73.462;2023-03-14T12:01:03;14.67;12.00;7.00
78512;PMS5003;67809;55.034;73.462;2023-03-14T12:03:46;14.50;12.00;8.00
78512;PMS5003;67809;55.034;73.462;2023-03-14T12:08:52;12.00;10.00;7.00
78512;PMS5003;67809;55.034;73.462;2023-03-14T12:13:55;12.00;11.00;8.00
78512;PMS5003;67809;55.034;73.462;2023-03-14T12:18:51;13.00;11.00;7.00
78512;PMS5003;67809;55.034;73.462;2023-03-14T12:21:43;12.00;10.00;6.00
78512;PMS5003;67809;55.034;73.462;2023-03-14T12:24:15;16.00;12.00;7.00
78512;PMS5003;67809;55.034;73.462;2023-03-14T12:26:49;12.50;11.25;7.75
78512;PMS5003;67809;55.034;73.462;2023-03-14T12:29:23;14.33;11.67;7.00
78512;PMS5003;67809;55.034;73.462;2023-03-14T12:35:06;16.75;13.00;9.00
78512;PMS5003;67809;55.034;73.462;2023-03-14T12:37:36;19.00;16.75;10.75
78512;PMS5003;67809;55.034;73.462;2023-03-14T12:40:19;18.00;15.00;10.00
78512;PMS5003;67809;55.034;73.462;2023-03-14T12:42:58;20.50;16.25;10.50
78512;PMS5003;67809;55.034;73.462;2023-03-14T12:45:30;21.00;17.00;11.00
78512;PMS5003;67809;55.034;73.462;2023-03-14T12:50:36;29.00;24.33;15.00
78512;PMS5003;67809;55.034;73.462;2023-03-14T12:53:07;32.00;25.00;16.00
78512;PMS5003;67809;55.034;73.462;2023-03-14T12:55:49;28.00;21.00;15.00
78512;PMS5003;67809;55.034;73.462;2023-03-14T12:58:43;26.00;23.00;14.00
78512;PMS5003;67809;55.034;73.462;2023-03-14T13:01:16;28.33;24.00;16.00
78512;PMS5003;67809;55.034;73.462;2023-03-14T13:03:46;26.50;21.50;14.00
78512;PMS5003;67809;55.034;73.462;2023-03-14T13:06:13;27.25;21.25;14.25
78512;PMS5003;67809;55.034;73.462;2023-03-14T13:09:01;29.00;24.00;15.50
78512;PMS5003;67809;55.034;73.462;2023-03-14T13:11:45;30.50;25.00;16.00
78512;PMS5003;67809;55.034;73.462;2023-03-14T13:14:16;37.50;29.00;20.00
78512;PMS5003;67809;55.034;73.462;2023-03-14T13:16:44;29.00;24.00;16.00
78512;PMS5003;67809;55.034;73.462;2023-03-14T13:19:22;34.00;26.75;17.25
78512;PMS5003;67809;55.034;73.462;2023-03-14T13:21:50;33.00;25.75;17.00
78512;PMS5003;67809;55.034;73.462;2023-03-14T13:24:23;38.00;30.00;20.00
78512;PMS5003;67809;55.034;73.462;2023-03-14T13:27:00;44.75;34.75;22.00
78512;PMS5003;67809;55.034;73.462;2023-03-14T13:29:36;41.25;32.00;21.75
78512;PMS5003;67809;55.034;73.462;2023-03-14T13:32:13;43.67;34.00;22.33
78512;PMS5003;67809;55.034;73.462;2023-03-14T13:34:47;46.50;36.25;22.50
78512;PMS5003;67809;55.034;73.462;2023-03-14T13:37:25;51.00;37.75;24.75
78512;PMS5003;67809;55.034;73.462;2023-03-14T13:39:57;43.00;35.00;23.00
78512;PMS5003;67809;55.034;73.462;2023-03-14T13:42:27;36.00;30.00;20.00
78512;PMS5003;67809;55.034;73.462;2023-03-14T13:44:55;35.00;29.00;19.00
78512;PMS5003;67809;55.034;73.462;2023-03-14T13:47:22;29.75;24.25;16.00
78512;PMS5003;67809;55.034;73.462;2023-03-14T13:50:03;26.67;22.00;15.00
78512;PMS5003;67809;55.034;73.462;2023-03-14T13:52:30;27.25;23.00;15.00
78512;PMS5003;67809;55.034;73.462;2023-03-14T13:54:57;23.50;18.00;12.50
78512;PMS5003;67809;55.034;73.462;2023-03-14T14:00:19;36.50;28.75;19.50
78512;PMS5003;67809;55.034;73.462;2023-03-14T14:02:55;21.75;18.00;12.00
78512;PMS5003;67809;55.034;73.462;2023-03-14T14:05:32;28.50;23.50;15.00
78512;PMS5003;67809;55.034;73.462;2023-03-14T14:07:59;30.75;24.00;15.00
78512;PMS5003;67809;55.034;73.462;2023-03-14T14:10:28;19.75;16.00;10.50
78512;PMS5003;67809;55.034;73.462;2023-03-14T14:13:01;39.00;30.25;19.00
78512;PMS5003;67809;55.034;73.462;2023-03-14T14:15:29;20.75;17.75;12.25
78512;PMS5003;67809;55.034;73.462;2023-03-14T14:18:08;23.50;19.50;13.00
78512;PMS5003;67809;55.034;73.462;2023-03-14T14:20:40;29.00;23.00;15.33
78512;PMS5003;67809;55.034;73.462;2023-03-14T14:23:22;27.00;22.00;14.00
78512;PMS5003;67809;55.034;73.462;2023-03-14T14:26:01;29.25;23.50;15.50
78512;PMS5003;67809;55.034;73.462;2023-03-14T14:28:34;31.00;26.00;17.00
78512;PMS5003;67809;55.034;73.462;2023-03-14T14:33:26;27.00;21.50;14.00
78512;PMS5003;67809;55.034;73.462;2023-03-14T14:35:59;26.00;21.25;13.00
78512;PMS5003;67809;55.034;73.462;2023-03-14T14:38:25;28.00;23.00;15.00
78512;PMS5003;67809;55.034;73.462;2023-03-14T14:40:53;24.00;20.00;12.75
78512;PMS5003;67809;55.034;73.462;2023-03-14T14:43:24;25.25;21.50;14.00
78512;PMS5003;67809;55.034;73.462;2023-03-14T14:45:57;29.00;22.00;14.00
78512;PMS5003;67809;55.034;73.462;2023-03-14T14:48:24;36.25;28.00;19.00
78512;PMS5003;67809;55.034;73.462;2023-03-14T14:51:03;34.00;26.00;17.00
78512;PMS5003;67809;55.034;73.462;2023-03-14T14:56:04;44.00;33.75;21.00
78512;PMS5003;67809;55.034;73.462;2023-03-14T15:01:16;38.00;30.00;19.00
78512;PMS5003;67809;55.034;73.462;2023-03-14T15:03:48;33.00;26.00;17.00
78512;PMS5003;67809;55.034;73.462;2023-03-14T15:06:16;21.50;19.00;12.00
78512;PMS5003;67809;55.034;73.462;2023-03-14T15:08:43;25.00;20.50;14.00
78512;PMS5003;67809;55.034;73.462;2023-03-14T15:11:30;30.00;24.00;15.00
78512;PMS5003;67809;55.034;73.462;2023-03-14T15:14:05;25.00;20.50;12.75
78512;PMS5003;67809;55.034;73.462;2023-03-14T15:16:32;27.25;22.25;13.00
78512;PMS5003;67809;55.034;73.462;2023-03-14T15:18:59;27.75;21.75;13.00